Katherine — V7ZU2 — position and weather

sailwx.info

Track history (hours):
 
Tides and Currents Weather Stations Pressure Air Temp Water Temp Dewpoint Dewpoint Depression Visibility Wind Speed Wind Dir Waves Ship Positions

Katherine

Last reported at 2017-Oct-18 14:39 UTC. Time now 2017-Oct-18 15:18 UTC.
Position N 48°35' W 005°45'.

Length 270 m; draft 12.8 m.

Type: Ship (hazmat cat A). MMSI: 538004914.

Date/timePositionNaut miles runAvg speedWind from/ knotsBaromVisibWave heightAir tempDewpointWater temp
2017-Oct-18 14:39N 48°35' W 005°45'56919.8
2017-Oct-17 09:54N 39°33' W 009°48'719.1
2017-Oct-17 09:30N 39°26' W 009°48'918.7
2017-Oct-17 09:00N 39°16' W 009°49'1019.2
2017-Oct-17 08:31N 39°07' W 009°50'1019.4
2017-Oct-17 08:01N 38°57' W 009°51'1019.6
2017-Oct-17 07:30N 38°47' W 009°51'1019.5
2017-Oct-17 07:01N 38°38' W 009°51'1019.5
2017-Oct-17 06:30N 38°28' W 009°48'1020.1
2017-Oct-17 06:00N 38°18' W 009°45'1020.0
2017-Oct-17 05:30N 38°09' W 009°41'1019.3
2017-Oct-17 05:00N 37°59' W 009°38'1019.0
2017-Oct-17 04:30N 37°50' W 009°35'918.6
2017-Oct-17 04:00N 37°41' W 009°32'1518.9
2017-Oct-17 03:14N 37°27' W 009°28'518.1
2017-Oct-17 02:56N 37°22' W 009°27'1919.0
2017-Oct-17 01:55N 37°03' W 009°22'819.5
2017-Oct-17 01:30N 36°55' W 009°19'1019.7
2017-Oct-17 00:59N 36°47' W 009°11'1219.9
2017-Oct-17 00:24N 36°42' W 008°58'819.8
2017-Oct-17 00:01N 36°40' W 008°48'1120.1
2017-Oct-16 23:26N 36°37' W 008°35'819.7
2017-Oct-16 23:01N 36°35' W 008°25'2519.7
2017-Oct-16 21:43N 36°27' W 007°55'1620.4
2017-Oct-16 20:57N 36°22' W 007°36'1120.5
2017-Oct-16 20:24N 36°19' W 007°23'920.5
2017-Oct-16 19:57N 36°16' W 007°12'920.3
2017-Oct-16 19:30N 36°13' W 007°01'7119.5
2017-Oct-16 15:54N 35°58' W 005°36'616.3
2017-Oct-16 15:30N 35°59' W 005°28'917.9
2017-Oct-16 15:00N 36°01' W 005°18'1118.0
2017-Oct-16 14:24N 36°04' W 005°04'20920.4
2017-Oct-16 04:11N 37°04' W 000°55'521.7
2017-Oct-16 03:57N 37°06' W 000°50'1521.7
2017-Oct-16 03:15N 37°14' W 000°33'1021.5
2017-Oct-16 02:47N 37°20' W 000°24'621.5
2017-Oct-16 02:30N 37°24' W 000°18'18321.0
2017-Oct-15 17:46N 39°03' E 002°59'620.7
2017-Oct-15 17:30N 39°06' E 003°05'2721.2
2017-Oct-15 16:14N 39°20' E 003°34'821.3
2017-Oct-15 15:51N 39°24' E 003°43'21820.9
2017-Oct-15 05:26N 41°54' E 007°11'11220.4
2017-Oct-14 23:56N 43°16' E 008°56'920.4
2017-Oct-14 23:30N 43°23' E 009°04'1020.6
2017-Oct-14 23:01N 43°30' E 009°14'1020.3
2017-Oct-14 22:30N 43°38' E 009°23'1020.4
2017-Oct-14 22:01N 43°45' E 009°33'1020.4
2017-Oct-14 21:31N 43°53' E 009°42'1019.5
2017-Oct-14 21:01N 44°00' E 009°51'510.6
2017-Oct-14 20:30N 44°05' E 009°51'1 1.4
2017-Oct-14 19:49N 44°06' E 009°51'0 0.0
2017-Oct-14 19:28N 44°06' E 009°51'0 0.0
2017-Oct-14 18:49N 44°06' E 009°51'0 0.0
2017-Oct-14 18:25N 44°06' E 009°51'0 0.0
2017-Oct-14 17:55N 44°06' E 009°51'0 0.0
2017-Oct-14 17:28N 44°06' E 009°51'0 0.0
2017-Oct-14 16:55N 44°06' E 009°51'0 0.0
2017-Oct-14 16:22N 44°06' E 009°51'0 0.0
2017-Oct-14 15:58N 44°06' E 009°51'0 0.0
2017-Oct-14 15:28N 44°06' E 009°51'0 0.0
2017-Oct-14 14:58N 44°06' E 009°51'0 0.0
2017-Oct-14 14:22N 44°06' E 009°51'0 0.0
2017-Oct-14 13:58N 44°06' E 009°51'0 0.0
2017-Oct-14 13:28N 44°06' E 009°51'0 0.0
2017-Oct-14 12:58N 44°06' E 009°51'0 0.0
2017-Oct-14 12:28N 44°06' E 009°51'0 0.0
2017-Oct-14 11:52N 44°06' E 009°51'0 0.0
2017-Oct-14 11:28N 44°06' E 009°51'0 0.0
2017-Oct-14 10:55N 44°06' E 009°51'0 0.0
2017-Oct-14 10:28N 44°06' E 009°51'0 0.0
2017-Oct-14 10:01N 44°06' E 009°51'0 0.0
2017-Oct-14 09:25N 44°06' E 009°51'0 0.0
2017-Oct-14 08:58N 44°06' E 009°51'0 0.0
2017-Oct-14 08:30N 44°06' E 009°51'0 0.0
2017-Oct-14 08:01N 44°06' E 009°51'0 0.0
2017-Oct-14 07:28N 44°06' E 009°51'0 0.0
2017-Oct-14 06:58N 44°06' E 009°51'0 0.0
2017-Oct-14 06:25N 44°06' E 009°51'0 0.0
2017-Oct-14 06:01N 44°06' E 009°51'0 0.0
2017-Oct-14 05:28N 44°06' E 009°51'0 0.0
2017-Oct-14 04:55N 44°06' E 009°51'0 0.0
2017-Oct-14 04:28N 44°06' E 009°51'0 0.0
2017-Oct-14 03:58N 44°06' E 009°51'0 0.0
2017-Oct-14 03:28N 44°06' E 009°51'0 0.0
2017-Oct-14 02:57N 44°06' E 009°51'0 0.0
2017-Oct-14 02:28N 44°06' E 009°51'0 0.0
2017-Oct-14 01:55N 44°06' E 009°51'0 0.0
2017-Oct-14 01:28N 44°06' E 009°51'0 0.0
2017-Oct-14 00:55N 44°06' E 009°51'0 0.0
2017-Oct-14 00:25N 44°06' E 009°51'0 0.0
2017-Oct-13 23:58N 44°06' E 009°51'0 0.0
2017-Oct-13 23:28N 44°06' E 009°51'0 0.0
2017-Oct-13 22:55N 44°06' E 009°51'0 0.0
2017-Oct-13 22:31N 44°06' E 009°51'0 0.0
2017-Oct-13 22:00N 44°06' E 009°51'0 0.4
2017-Oct-13 21:31N 44°06' E 009°51'2 4.5
2017-Oct-13 21:01N 44°04' E 009°51'3 5.8
2017-Oct-13 20:31N 44°02' E 009°54'1 2.2
2017-Oct-13 20:01N 44°01' E 009°55'0 0.9
2017-Oct-13 19:28N 44°01' E 009°55'1 2.0
2017-Oct-13 19:01N 43°60' E 009°55'4 7.3
2017-Oct-13 18:27N 43°59' E 009°49'0 0.2
2017-Oct-13 17:57N 43°58' E 009°49'0 0.0
2017-Oct-13 17:27N 43°58' E 009°49'0 0.0
2017-Oct-13 16:57N 43°58' E 009°49'0 0.0
2017-Oct-13 16:30N 43°58' E 009°49'0 0.0
2017-Oct-13 16:00N 43°58' E 009°49'0 0.0
2017-Oct-13 15:30N 43°58' E 009°49'0 0.0
2017-Oct-13 15:00N 43°58' E 009°49'0 0.0
2017-Oct-13 14:27N 43°58' E 009°49'0 0.0
2017-Oct-13 14:00N 43°58' E 009°49'0 0.0
2017-Oct-13 13:27N 43°58' E 009°49'0 0.1
2017-Oct-13 13:00N 43°59' E 009°49'0 0.1
2017-Oct-13 12:30N 43°59' E 009°49'0 0.2
2017-Oct-13 12:00N 43°59' E 009°49'0 0.2
2017-Oct-13 11:30N 43°59' E 009°49'0 0.1
2017-Oct-13 11:00N 43°59' E 009°49'0 0.1
2017-Oct-13 10:30N 43°59' E 009°49'0 0.1
2017-Oct-13 10:00N 43°58' E 009°49'0 0.0
2017-Oct-13 09:30N 43°58' E 009°49'0 0.0
2017-Oct-13 09:00N 43°58' E 009°49'0 0.1
2017-Oct-13 08:30N 43°58' E 009°49'0 0.1
2017-Oct-13 08:00N 43°58' E 009°49'0 0.0
2017-Oct-13 07:30N 43°58' E 009°49'0 0.0
2017-Oct-13 07:00N 43°58' E 009°49'0 0.0
2017-Oct-13 06:30N 43°58' E 009°49'0 0.1
2017-Oct-13 06:00N 43°58' E 009°49'0 0.0
2017-Oct-13 05:30N 43°58' E 009°49'0 0.0
2017-Oct-13 05:00N 43°58' E 009°49'0 0.1
2017-Oct-13 04:30N 43°58' E 009°49'0 0.1
2017-Oct-13 04:00N 43°58' E 009°49'0 0.2
2017-Oct-13 03:30N 43°59' E 009°49'2 3.5
2017-Oct-13 03:00N 43°57' E 009°51'3 5.4
2017-Oct-13 02:30N 43°55' E 009°52'5 9.0
2017-Oct-13 02:00N 43°50' E 009°53'5 9.8
2017-Oct-13 01:30N 43°46' E 009°51'5 9.8
2017-Oct-13 01:00N 43°41' E 009°49'510.1
2017-Oct-13 00:30N 43°36' E 009°47'510.3
2017-Oct-13 00:00N 43°31' E 009°45'510.3
2017-Oct-12 23:30N 43°26' E 009°43'610.2
2017-Oct-12 22:58N 43°21' E 009°40'510.0
2017-Oct-12 22:30N 43°17' E 009°38'5 9.9
2017-Oct-12 22:00N 43°12' E 009°36'5 9.6
2017-Oct-12 21:27N 43°07' E 009°37'510.0
2017-Oct-12 21:00N 43°02' E 009°38'2610.4
2017-Oct-12 18:33N 42°38' E 009°48'010.3
2017-Oct-12 18:30N 42°37' E 009°48'218 9.4
2017-Oct-11 19:09N 40°35' E 013°50'110.3
2017-Oct-11 19:00N 40°35' E 013°52'510.1
2017-Oct-11 18:30N 40°35' E 013°59'510.3
2017-Oct-11 17:59N 40°38' E 014°04'510.2
2017-Oct-11 17:30N 40°41' E 014°09'5 9.9
2017-Oct-11 17:00N 40°44' E 014°14'6 0.3
2017-Oct-10 19:51N 40°50' E 014°17'0 0.0
2017-Oct-10 19:27N 40°50' E 014°17'0 0.0
2017-Oct-10 18:57N 40°50' E 014°17'0 0.0
2017-Oct-10 18:21N 40°50' E 014°17'0 0.0
2017-Oct-10 17:57N 40°50' E 014°17'0 0.0
2017-Oct-10 17:21N 40°50' E 014°17'0 0.0
2017-Oct-10 15:57N 40°50' E 014°17'0 0.4
2017-Oct-10 15:30N 40°50' E 014°17'1 3.0
2017-Oct-10 15:00N 40°49' E 014°17'1110.8
2017-Oct-10 14:00N 40°40' E 014°09'613.0
2017-Oct-10 13:30N 40°34' E 014°04'2513.1
2017-Oct-10 11:38N 40°12' E 014°18'2113.3
2017-Oct-10 10:05N 39°54' E 014°32'112.6
2017-Oct-10 10:00N 39°54' E 014°33'1112.8
2017-Oct-10 09:08N 39°44' E 014°40'2012.7
2017-Oct-10 07:34N 39°27' E 014°53'112.6
2017-Oct-10 07:29N 39°26' E 014°53'612.4
2017-Oct-10 07:00N 39°21' E 014°57'3310.7
2017-Oct-10 03:56N 38°52' E 015°19'711.0
2017-Oct-10 03:20N 38°47' E 015°23'511.0
2017-Oct-10 02:55N 38°43' E 015°27'610.6
2017-Oct-10 02:23N 38°38' E 015°31'410.6
2017-Oct-10 02:00N 38°35' E 015°33'610.6
2017-Oct-10 01:27N 38°30' E 015°36'510.5
2017-Oct-10 01:00N 38°25' E 015°39'510.7
2017-Oct-10 00:30N 38°21' E 015°42'510.4
2017-Oct-10 00:00N 38°16' E 015°41'815.4
2017-Oct-09 23:30N 38°09' E 015°36'917.9
2017-Oct-09 23:00N 37°60' E 015°35'917.9
2017-Oct-09 22:31N 37°52' E 015°42'816.4
2017-Oct-09 22:00N 37°49' E 015°51'916.2
2017-Oct-09 21:27N 37°45' E 016°01'916.1
2017-Oct-09 20:54N 37°42' E 016°12'41818.9
2017-Oct-08 22:47N 35°41' E 024°31'  
Track history (hours):
 
Tides and Currents Weather Stations Pressure Air Temp Water Temp Dewpoint Dewpoint Depression Visibility Wind Speed Wind Dir Waves Ship Positions

Katherine

Last reported at 2017-Oct-18 14:39 UTC. Time now 2017-Oct-18 15:18 UTC.
Position N 48°35' W 005°45'.

Length 270 m; draft 12.8 m.

Type: Ship (hazmat cat A). MMSI: 538004914.

Date/timePositionNaut miles runAvg speedWind from/ knotsBaromVisibWave heightAir tempDewpointWater temp
2017-Oct-18 14:39N 48°35' W 005°45'56919.8
2017-Oct-17 09:54N 39°33' W 009°48'719.1
2017-Oct-17 09:30N 39°26' W 009°48'918.7
2017-Oct-17 09:00N 39°16' W 009°49'1019.2
2017-Oct-17 08:31N 39°07' W 009°50'1019.4
2017-Oct-17 08:01N 38°57' W 009°51'1019.6
2017-Oct-17 07:30N 38°47' W 009°51'1019.5
2017-Oct-17 07:01N 38°38' W 009°51'1019.5
2017-Oct-17 06:30N 38°28' W 009°48'1020.1
2017-Oct-17 06:00N 38°18' W 009°45'1020.0
2017-Oct-17 05:30N 38°09' W 009°41'1019.3
2017-Oct-17 05:00N 37°59' W 009°38'1019.0
2017-Oct-17 04:30N 37°50' W 009°35'918.6
2017-Oct-17 04:00N 37°41' W 009°32'1518.9
2017-Oct-17 03:14N 37°27' W 009°28'518.1
2017-Oct-17 02:56N 37°22' W 009°27'1919.0
2017-Oct-17 01:55N 37°03' W 009°22'819.5
2017-Oct-17 01:30N 36°55' W 009°19'1019.7
2017-Oct-17 00:59N 36°47' W 009°11'1219.9
2017-Oct-17 00:24N 36°42' W 008°58'819.8
2017-Oct-17 00:01N 36°40' W 008°48'1120.1
2017-Oct-16 23:26N 36°37' W 008°35'819.7
2017-Oct-16 23:01N 36°35' W 008°25'2519.7
2017-Oct-16 21:43N 36°27' W 007°55'1620.4
2017-Oct-16 20:57N 36°22' W 007°36'1120.5
2017-Oct-16 20:24N 36°19' W 007°23'920.5
2017-Oct-16 19:57N 36°16' W 007°12'920.3
2017-Oct-16 19:30N 36°13' W 007°01'7119.5
2017-Oct-16 15:54N 35°58' W 005°36'616.3
2017-Oct-16 15:30N 35°59' W 005°28'917.9
2017-Oct-16 15:00N 36°01' W 005°18'1118.0
2017-Oct-16 14:24N 36°04' W 005°04'20920.4
2017-Oct-16 04:11N 37°04' W 000°55'521.7
2017-Oct-16 03:57N 37°06' W 000°50'1521.7
2017-Oct-16 03:15N 37°14' W 000°33'1021.5
2017-Oct-16 02:47N 37°20' W 000°24'621.5
2017-Oct-16 02:30N 37°24' W 000°18'18321.0
2017-Oct-15 17:46N 39°03' E 002°59'620.7
2017-Oct-15 17:30N 39°06' E 003°05'2721.2
2017-Oct-15 16:14N 39°20' E 003°34'821.3
2017-Oct-15 15:51N 39°24' E 003°43'21820.9
2017-Oct-15 05:26N 41°54' E 007°11'11220.4
2017-Oct-14 23:56N 43°16' E 008°56'920.4
2017-Oct-14 23:30N 43°23' E 009°04'1020.6
2017-Oct-14 23:01N 43°30' E 009°14'1020.3
2017-Oct-14 22:30N 43°38' E 009°23'1020.4
2017-Oct-14 22:01N 43°45' E 009°33'1020.4
2017-Oct-14 21:31N 43°53' E 009°42'1019.5
2017-Oct-14 21:01N 44°00' E 009°51'510.6
2017-Oct-14 20:30N 44°05' E 009°51'1 1.4
2017-Oct-14 19:49N 44°06' E 009°51'0 0.0
2017-Oct-14 19:28N 44°06' E 009°51'0 0.0
2017-Oct-14 18:49N 44°06' E 009°51'0 0.0
2017-Oct-14 18:25N 44°06' E 009°51'0 0.0
2017-Oct-14 17:55N 44°06' E 009°51'0 0.0
2017-Oct-14 17:28N 44°06' E 009°51'0 0.0
2017-Oct-14 16:55N 44°06' E 009°51'0 0.0
2017-Oct-14 16:22N 44°06' E 009°51'0 0.0
2017-Oct-14 15:58N 44°06' E 009°51'0 0.0
2017-Oct-14 15:28N 44°06' E 009°51'0 0.0
2017-Oct-14 14:58N 44°06' E 009°51'0 0.0
2017-Oct-14 14:22N 44°06' E 009°51'0 0.0
2017-Oct-14 13:58N 44°06' E 009°51'0 0.0
2017-Oct-14 13:28N 44°06' E 009°51'0 0.0
2017-Oct-14 12:58N 44°06' E 009°51'0 0.0
2017-Oct-14 12:28N 44°06' E 009°51'0 0.0
2017-Oct-14 11:52N 44°06' E 009°51'0 0.0
2017-Oct-14 11:28N 44°06' E 009°51'0 0.0
2017-Oct-14 10:55N 44°06' E 009°51'0 0.0
2017-Oct-14 10:28N 44°06' E 009°51'0 0.0
2017-Oct-14 10:01N 44°06' E 009°51'0 0.0
2017-Oct-14 09:25N 44°06' E 009°51'0 0.0
2017-Oct-14 08:58N 44°06' E 009°51'0 0.0
2017-Oct-14 08:30N 44°06' E 009°51'0 0.0
2017-Oct-14 08:01N 44°06' E 009°51'0 0.0
2017-Oct-14 07:28N 44°06' E 009°51'0 0.0
2017-Oct-14 06:58N 44°06' E 009°51'0 0.0
2017-Oct-14 06:25N 44°06' E 009°51'0 0.0
2017-Oct-14 06:01N 44°06' E 009°51'0 0.0
2017-Oct-14 05:28N 44°06' E 009°51'0 0.0
2017-Oct-14 04:55N 44°06' E 009°51'0 0.0
2017-Oct-14 04:28N 44°06' E 009°51'0 0.0
2017-Oct-14 03:58N 44°06' E 009°51'0 0.0
2017-Oct-14 03:28N 44°06' E 009°51'0 0.0
2017-Oct-14 02:57N 44°06' E 009°51'0 0.0
2017-Oct-14 02:28N 44°06' E 009°51'0 0.0
2017-Oct-14 01:55N 44°06' E 009°51'0 0.0
2017-Oct-14 01:28N 44°06' E 009°51'0 0.0
2017-Oct-14 00:55N 44°06' E 009°51'0 0.0
2017-Oct-14 00:25N 44°06' E 009°51'0 0.0
2017-Oct-13 23:58N 44°06' E 009°51'0 0.0
2017-Oct-13 23:28N 44°06' E 009°51'0 0.0
2017-Oct-13 22:55N 44°06' E 009°51'0 0.0
2017-Oct-13 22:31N 44°06' E 009°51'0 0.0
2017-Oct-13 22:00N 44°06' E 009°51'0 0.4
2017-Oct-13 21:31N 44°06' E 009°51'2 4.5
2017-Oct-13 21:01N 44°04' E 009°51'3 5.8
2017-Oct-13 20:31N 44°02' E 009°54'1 2.2
2017-Oct-13 20:01N 44°01' E 009°55'0 0.9
2017-Oct-13 19:28N 44°01' E 009°55'1 2.0
2017-Oct-13 19:01N 43°60' E 009°55'4 7.3
2017-Oct-13 18:27N 43°59' E 009°49'0 0.2
2017-Oct-13 17:57N 43°58' E 009°49'0 0.0
2017-Oct-13 17:27N 43°58' E 009°49'0 0.0
2017-Oct-13 16:57N 43°58' E 009°49'0 0.0
2017-Oct-13 16:30N 43°58' E 009°49'0 0.0
2017-Oct-13 16:00N 43°58' E 009°49'0 0.0
2017-Oct-13 15:30N 43°58' E 009°49'0 0.0
2017-Oct-13 15:00N 43°58' E 009°49'0 0.0
2017-Oct-13 14:27N 43°58' E 009°49'0 0.0
2017-Oct-13 14:00N 43°58' E 009°49'0 0.0
2017-Oct-13 13:27N 43°58' E 009°49'0 0.1
2017-Oct-13 13:00N 43°59' E 009°49'0 0.1
2017-Oct-13 12:30N 43°59' E 009°49'0 0.2
2017-Oct-13 12:00N 43°59' E 009°49'0 0.2
2017-Oct-13 11:30N 43°59' E 009°49'0 0.1
2017-Oct-13 11:00N 43°59' E 009°49'0 0.1
2017-Oct-13 10:30N 43°59' E 009°49'0 0.1
2017-Oct-13 10:00N 43°58' E 009°49'0 0.0
2017-Oct-13 09:30N 43°58' E 009°49'0 0.0
2017-Oct-13 09:00N 43°58' E 009°49'0 0.1
2017-Oct-13 08:30N 43°58' E 009°49'0 0.1
2017-Oct-13 08:00N 43°58' E 009°49'0 0.0
2017-Oct-13 07:30N 43°58' E 009°49'0 0.0
2017-Oct-13 07:00N 43°58' E 009°49'0 0.0
2017-Oct-13 06:30N 43°58' E 009°49'0 0.1
2017-Oct-13 06:00N 43°58' E 009°49'0 0.0
2017-Oct-13 05:30N 43°58' E 009°49'0 0.0
2017-Oct-13 05:00N 43°58' E 009°49'0 0.1
2017-Oct-13 04:30N 43°58' E 009°49'0 0.1
2017-Oct-13 04:00N 43°58' E 009°49'0 0.2
2017-Oct-13 03:30N 43°59' E 009°49'2 3.5
2017-Oct-13 03:00N 43°57' E 009°51'3 5.4
2017-Oct-13 02:30N 43°55' E 009°52'5 9.0
2017-Oct-13 02:00N 43°50' E 009°53'5 9.8
2017-Oct-13 01:30N 43°46' E 009°51'5 9.8
2017-Oct-13 01:00N 43°41' E 009°49'510.1
2017-Oct-13 00:30N 43°36' E 009°47'510.3
2017-Oct-13 00:00N 43°31' E 009°45'510.3
2017-Oct-12 23:30N 43°26' E 009°43'610.2
2017-Oct-12 22:58N 43°21' E 009°40'510.0
2017-Oct-12 22:30N 43°17' E 009°38'5 9.9
2017-Oct-12 22:00N 43°12' E 009°36'5 9.6
2017-Oct-12 21:27N 43°07' E 009°37'510.0
2017-Oct-12 21:00N 43°02' E 009°38'2610.4
2017-Oct-12 18:33N 42°38' E 009°48'010.3
2017-Oct-12 18:30N 42°37' E 009°48'218 9.4
2017-Oct-11 19:09N 40°35' E 013°50'110.3
2017-Oct-11 19:00N 40°35' E 013°52'510.1
2017-Oct-11 18:30N 40°35' E 013°59'510.3
2017-Oct-11 17:59N 40°38' E 014°04'510.2
2017-Oct-11 17:30N 40°41' E 014°09'5 9.9
2017-Oct-11 17:00N 40°44' E 014°14'6 0.3
2017-Oct-10 19:51N 40°50' E 014°17'0 0.0
2017-Oct-10 19:27N 40°50' E 014°17'0 0.0
2017-Oct-10 18:57N 40°50' E 014°17'0 0.0
2017-Oct-10 18:21N 40°50' E 014°17'0 0.0
2017-Oct-10 17:57N 40°50' E 014°17'0 0.0
2017-Oct-10 17:21N 40°50' E 014°17'0 0.0
2017-Oct-10 15:57N 40°50' E 014°17'0 0.4
2017-Oct-10 15:30N 40°50' E 014°17'1 3.0
2017-Oct-10 15:00N 40°49' E 014°17'1110.8
2017-Oct-10 14:00N 40°40' E 014°09'613.0
2017-Oct-10 13:30N 40°34' E 014°04'2513.1
2017-Oct-10 11:38N 40°12' E 014°18'2113.3
2017-Oct-10 10:05N 39°54' E 014°32'112.6
2017-Oct-10 10:00N 39°54' E 014°33'1112.8
2017-Oct-10 09:08N 39°44' E 014°40'2012.7
2017-Oct-10 07:34N 39°27' E 014°53'112.6
2017-Oct-10 07:29N 39°26' E 014°53'612.4
2017-Oct-10 07:00N 39°21' E 014°57'3310.7
2017-Oct-10 03:56N 38°52' E 015°19'711.0
2017-Oct-10 03:20N 38°47' E 015°23'511.0
2017-Oct-10 02:55N 38°43' E 015°27'610.6
2017-Oct-10 02:23N 38°38' E 015°31'410.6
2017-Oct-10 02:00N 38°35' E 015°33'610.6
2017-Oct-10 01:27N 38°30' E 015°36'510.5
2017-Oct-10 01:00N 38°25' E 015°39'510.7
2017-Oct-10 00:30N 38°21' E 015°42'510.4
2017-Oct-10 00:00N 38°16' E 015°41'815.4
2017-Oct-09 23:30N 38°09' E 015°36'917.9
2017-Oct-09 23:00N 37°60' E 015°35'917.9
2017-Oct-09 22:31N 37°52' E 015°42'816.4
2017-Oct-09 22:00N 37°49' E 015°51'916.2
2017-Oct-09 21:27N 37°45' E 016°01'916.1
2017-Oct-09 20:54N 37°42' E 016°12'41818.9
2017-Oct-08 22:47N 35°41' E 024°31'  

Dump ship's entire track history